createdAt,value
2022-12-23T00:01:02.368Z,0.00
2022-12-23T00:03:30.994Z,0.00
2022-12-23T00:05:58.484Z,0.00
2022-12-23T00:08:27.084Z,0.00
2022-12-23T00:10:56.612Z,0.00
2022-12-23T00:13:42.065Z,0.00
2022-12-23T00:16:12.926Z,1.38
2022-12-23T00:18:41.068Z,1.48
2022-12-23T00:21:12.644Z,6.43
2022-12-23T00:23:43.151Z,0.43
2022-12-23T00:26:22.031Z,0.03
2022-12-23T00:28:50.052Z,0.00
2022-12-23T00:31:19.019Z,0.20
2022-12-23T00:33:51.018Z,0.05
2022-12-23T00:36:30.074Z,0.00
2022-12-23T00:39:16.829Z,0.00
2022-12-23T00:42:03.349Z,0.00
2022-12-23T00:44:30.465Z,0.00
2022-12-23T00:46:57.768Z,0.00
2022-12-23T00:49:43.272Z,0.00
2022-12-23T00:52:13.090Z,0.00
2022-12-23T00:54:40.389Z,0.00
2022-12-23T00:57:07.391Z,1.45
2022-12-23T00:59:34.528Z,0.20
2022-12-23T01:02:20.687Z,0.00
2022-12-23T01:05:06.377Z,0.68
2022-12-23T01:07:33.582Z,0.28
2022-12-23T01:10:00.633Z,0.35
2022-12-23T01:12:27.962Z,0.25
2022-12-23T01:14:55.035Z,0.00
2022-12-23T01:17:22.144Z,0.08
2022-12-23T01:19:49.271Z,0.00
2022-12-23T01:22:16.349Z,0.00
2022-12-23T01:24:43.379Z,0.03
2022-12-23T01:27:10.372Z,0.00
2022-12-23T01:29:37.580Z,0.15
2022-12-23T01:32:04.809Z,0.00
2022-12-23T01:34:36.687Z,0.00
2022-12-23T01:37:04.368Z,0.00
2022-12-23T01:39:31.332Z,0.00
2022-12-23T01:42:16.889Z,0.00
2022-12-23T01:44:51.297Z,0.00
2022-12-23T01:47:49.282Z,0.00
2022-12-23T01:50:35.656Z,0.10
2022-12-23T01:53:08.646Z,0.00
2022-12-23T01:55:50.793Z,0.03
2022-12-23T01:58:26.140Z,0.00
2022-12-23T02:01:14.743Z,0.00
2022-12-23T02:03:42.651Z,0.95
2022-12-23T02:06:42.674Z,0.00
2022-12-23T02:09:19.295Z,0.10
2022-12-23T02:11:52.172Z,0.00
2022-12-23T02:15:02.846Z,0.00
2022-12-23T02:17:52.134Z,0.10
2022-12-23T02:20:22.077Z,0.90
2022-12-23T02:22:54.692Z,0.00
2022-12-23T02:25:30.419Z,0.10
2022-12-23T02:28:21.438Z,0.88
2022-12-23T02:31:10.784Z,0.38
2022-12-23T02:34:00.970Z,0.25
2022-12-23T02:36:37.216Z,0.38
2022-12-23T02:39:15.190Z,0.00
2022-12-23T02:41:57.815Z,0.00
2022-12-23T02:44:30.152Z,0.00
2022-12-23T02:47:02.057Z,0.63
2022-12-23T02:49:35.557Z,0.00
2022-12-23T02:52:08.170Z,0.43
2022-12-23T02:54:42.060Z,0.20
2022-12-23T02:57:13.165Z,0.03
2022-12-23T02:59:45.973Z,0.00
2022-12-23T03:02:13.406Z,0.00
2022-12-23T03:04:42.425Z,0.00
2022-12-23T03:07:23.943Z,0.52
2022-12-23T03:10:35.441Z,0.30
2022-12-23T03:13:23.493Z,0.08
2022-12-23T03:18:56.792Z,2.17
2022-12-23T03:21:45.049Z,0.00
2022-12-23T03:24:41.579Z,0.00
2022-12-23T03:27:42.991Z,0.00
2022-12-23T03:30:16.948Z,1.27
2022-12-23T03:32:58.248Z,0.00
2022-12-23T03:35:32.483Z,0.05
2022-12-23T03:38:02.969Z,0.00
2022-12-23T03:40:41.510Z,2.47
2022-12-23T03:43:15.072Z,0.00
2022-12-23T03:45:52.829Z,0.00
2022-12-23T03:48:40.309Z,0.00
2022-12-23T03:51:17.032Z,0.10
2022-12-23T03:53:52.089Z,0.00
2022-12-23T03:56:31.177Z,0.00
2022-12-23T03:59:01.474Z,0.03
2022-12-23T04:02:05.749Z,0.00
2022-12-23T04:05:01.308Z,0.00
2022-12-23T04:07:34.650Z,0.00
2022-12-23T04:10:01.787Z,0.00
2022-12-23T04:12:30.599Z,0.00
2022-12-23T04:14:58.105Z,0.10
2022-12-23T04:17:25.212Z,0.00
2022-12-23T04:19:53.374Z,0.00
2022-12-23T04:22:20.626Z,0.20
2022-12-23T04:24:47.776Z,0.10
2022-12-23T04:27:15.733Z,0.00
2022-12-23T04:29:43.990Z,0.00
2022-12-23T04:32:11.424Z,0.00
2022-12-23T04:34:38.461Z,0.10
2022-12-23T04:37:05.507Z,0.10
2022-12-23T04:39:32.597Z,0.00
2022-12-23T04:41:59.598Z,0.47
2022-12-23T04:44:26.595Z,0.00
2022-12-23T04:46:53.899Z,0.10
2022-12-23T04:49:20.930Z,0.00
2022-12-23T04:51:47.954Z,0.00
2022-12-23T04:54:15.075Z,0.00
2022-12-23T04:56:42.073Z,0.10
2022-12-23T04:59:10.533Z,0.30
2022-12-23T05:01:37.752Z,0.00
2022-12-23T05:04:05.058Z,0.00
2022-12-23T05:06:32.047Z,0.13
2022-12-23T05:08:59.050Z,0.10
2022-12-23T05:11:26.138Z,0.40
2022-12-23T05:13:53.192Z,0.45
2022-12-23T05:16:20.423Z,0.00
2022-12-23T05:18:47.460Z,0.00
2022-12-23T05:21:14.506Z,0.13
2022-12-23T05:23:41.663Z,0.00
2022-12-23T05:26:08.687Z,0.80
2022-12-23T05:28:35.967Z,0.08
2022-12-23T05:31:08.408Z,0.00
2022-12-23T05:33:36.001Z,0.30
2022-12-23T05:36:03.323Z,0.00
2022-12-23T05:38:30.779Z,0.33
2022-12-23T05:40:58.205Z,0.10
2022-12-23T05:43:25.210Z,0.10
2022-12-23T05:45:52.375Z,0.03
2022-12-23T05:48:19.690Z,1.10
2022-12-23T05:50:51.026Z,0.45
2022-12-23T05:53:18.112Z,4.97
2022-12-23T05:55:45.474Z,1.20
2022-12-23T05:58:12.495Z,2.10
2022-12-23T06:00:39.566Z,3.75
2022-12-23T06:03:06.791Z,0.15
2022-12-23T06:05:34.035Z,0.13
2022-12-23T06:08:01.123Z,0.20
2022-12-23T06:10:28.215Z,0.00
2022-12-23T06:12:55.315Z,0.15
2022-12-23T06:15:22.388Z,1.30
2022-12-23T06:17:50.254Z,1.25
2022-12-23T06:20:20.652Z,0.43
2022-12-23T06:22:48.337Z,0.00
2022-12-23T06:25:15.588Z,0.10
2022-12-23T06:27:42.626Z,0.73
2022-12-23T06:30:10.716Z,1.65
2022-12-23T06:32:38.856Z,3.45
2022-12-23T06:35:07.673Z,1.95
2022-12-23T06:37:34.993Z,0.00
2022-12-23T06:40:02.391Z,0.10
2022-12-23T06:42:29.567Z,0.13
2022-12-23T06:44:56.507Z,0.00
2022-12-23T06:47:23.607Z,0.00
2022-12-23T06:49:50.586Z,0.00
2022-12-23T06:52:17.763Z,0.43
2022-12-23T06:54:44.874Z,1.55
2022-12-23T06:57:12.013Z,0.00
2022-12-23T06:59:38.985Z,0.00
2022-12-23T07:02:06.826Z,0.00
2022-12-23T07:04:34.048Z,0.00
2022-12-23T07:07:01.038Z,0.10
2022-12-23T07:09:28.193Z,0.00
2022-12-23T07:11:55.167Z,0.10
2022-12-23T07:14:22.204Z,0.47
2022-12-23T07:16:49.301Z,0.10
2022-12-23T07:19:16.445Z,0.00
2022-12-23T07:21:43.408Z,0.00
2022-12-23T07:24:10.665Z,0.00
2022-12-23T07:26:37.746Z,6.38
2022-12-23T07:29:05.385Z,0.88
2022-12-23T07:31:32.505Z,0.00
2022-12-23T07:33:59.776Z,1.55
2022-12-23T07:36:27.032Z,0.57
2022-12-23T07:38:54.101Z,1.20
2022-12-23T07:41:21.194Z,0.90
2022-12-23T07:43:48.190Z,1.60
2022-12-23T07:46:15.366Z,10.77
2022-12-23T07:48:43.443Z,0.20
2022-12-23T07:51:10.800Z,0.52
2022-12-23T07:53:37.944Z,0.83
2022-12-23T07:56:05.512Z,0.93
2022-12-23T07:58:32.647Z,0.10
2022-12-23T08:01:05.694Z,6.75
2022-12-23T08:03:32.922Z,0.17
2022-12-23T08:06:05.965Z,0.00
2022-12-23T08:08:33.706Z,1.05
2022-12-23T08:11:03.048Z,0.00
2022-12-23T08:13:32.025Z,1.00
2022-12-23T08:16:00.889Z,0.55
2022-12-23T08:18:30.809Z,1.00
2022-12-23T08:21:00.447Z,0.73
2022-12-23T08:23:28.901Z,0.45
2022-12-23T08:26:13.677Z,1.25
2022-12-23T08:28:42.517Z,0.45
2022-12-23T08:31:18.402Z,0.08
2022-12-23T08:33:48.353Z,5.78
2022-12-23T08:36:23.400Z,0.00
2022-12-23T08:38:53.065Z,0.20
2022-12-23T08:41:24.957Z,0.75
2022-12-23T08:43:52.366Z,0.20
2022-12-23T08:46:20.406Z,1.67
2022-12-23T08:48:49.795Z,2.67
2022-12-23T08:51:19.028Z,0.70
2022-12-23T08:53:46.844Z,0.05
2022-12-23T08:56:18.966Z,0.00
2022-12-23T08:58:47.824Z,0.13
2022-12-23T09:01:17.142Z,0.20
2022-12-23T09:03:45.285Z,5.57
2022-12-23T09:08:56.363Z,0.10
2022-12-23T09:11:26.265Z,0.20
2022-12-23T09:13:53.812Z,0.00
2022-12-23T09:16:21.461Z,0.00
2022-12-23T09:18:48.567Z,0.10
2022-12-23T09:21:18.746Z,0.30
2022-12-23T09:23:45.916Z,1.13
2022-12-23T09:26:29.067Z,0.00
2022-12-23T09:28:57.444Z,0.60
2022-12-23T09:31:27.983Z,1.27
2022-12-23T09:33:59.552Z,2.08
2022-12-23T09:36:26.547Z,0.00
2022-12-23T09:38:55.733Z,0.40
2022-12-23T09:41:50.775Z,1.60
2022-12-23T09:44:37.647Z,0.40
2022-12-23T09:47:13.567Z,0.30
2022-12-23T09:49:47.625Z,0.90
2022-12-23T09:52:41.735Z,0.03
2022-12-23T09:55:12.110Z,0.00
2022-12-23T09:58:06.747Z,0.68
2022-12-23T10:00:43.014Z,0.22
2022-12-23T10:03:35.847Z,0.00
2022-12-23T10:06:11.541Z,0.22
2022-12-23T10:09:01.485Z,0.85
2022-12-23T10:11:32.615Z,0.00
2022-12-23T10:14:25.291Z,2.00
2022-12-23T10:17:12.448Z,0.00
2022-12-23T10:19:45.987Z,0.63
2022-12-23T10:22:39.507Z,0.13
2022-12-23T10:25:15.807Z,0.80
2022-12-23T10:27:44.266Z,1.02
2022-12-23T10:30:42.626Z,2.13
2022-12-23T10:33:28.527Z,0.05
2022-12-23T10:36:04.406Z,0.03
2022-12-23T10:38:58.507Z,4.18
2022-12-23T10:41:48.531Z,2.70
2022-12-23T10:44:56.648Z,1.50
2022-12-23T10:47:53.348Z,0.85
2022-12-23T10:50:33.656Z,0.10
2022-12-23T10:53:05.048Z,0.63
2022-12-23T10:55:38.669Z,0.43
2022-12-23T10:58:17.809Z,0.20
2022-12-23T11:01:14.996Z,0.68
2022-12-23T11:04:09.130Z,0.80
2022-12-23T11:06:43.800Z,0.25
2022-12-23T11:09:28.477Z,0.15
2022-12-23T11:12:02.340Z,0.20
2022-12-23T11:14:37.859Z,0.10
2022-12-23T11:17:17.942Z,3.53
2022-12-23T11:19:45.229Z,0.10
2022-12-23T11:22:23.529Z,0.10
2022-12-23T11:24:51.709Z,0.57
2022-12-23T11:27:20.028Z,0.00
2022-12-23T11:29:54.167Z,0.00
2022-12-23T11:32:25.083Z,0.00
2022-12-23T11:34:53.574Z,0.20
2022-12-23T11:37:42.591Z,0.28
2022-12-23T11:40:32.923Z,0.25
2022-12-23T11:43:03.692Z,0.20
2022-12-23T11:45:35.729Z,2.63
2022-12-23T11:48:06.228Z,0.00
2022-12-23T11:50:37.464Z,0.00
2022-12-23T11:53:11.788Z,0.05
2022-12-23T11:56:03.653Z,0.10
2022-12-23T11:58:37.108Z,0.20
2022-12-23T12:13:41.749Z,0.52
2022-12-23T12:16:14.400Z,0.15
2022-12-23T12:18:47.090Z,0.08
2022-12-23T12:21:31.558Z,0.22
2022-12-23T12:24:24.853Z,0.10
2022-12-23T12:26:54.950Z,0.10
2022-12-23T12:29:36.953Z,0.15
2022-12-23T12:32:07.795Z,0.10
2022-12-23T12:34:37.887Z,0.00
2022-12-23T12:37:27.946Z,0.10
2022-12-23T12:40:04.256Z,0.95
2022-12-23T12:42:42.292Z,0.30
2022-12-23T12:45:18.481Z,0.10
2022-12-23T12:48:11.652Z,0.15
2022-12-23T12:51:05.987Z,0.10
2022-12-23T12:53:34.019Z,0.10
2022-12-23T12:56:11.175Z,0.10
2022-12-23T12:58:39.545Z,0.75
2022-12-23T13:01:18.594Z,0.20
2022-12-23T13:04:21.639Z,0.30
2022-12-23T13:07:02.165Z,0.10
2022-12-23T13:09:48.046Z,0.10
2022-12-23T13:12:29.391Z,4.03
2022-12-23T13:15:05.716Z,0.98
2022-12-23T13:17:39.685Z,0.10
2022-12-23T13:20:27.751Z,0.10
2022-12-23T13:23:27.135Z,0.13
2022-12-23T13:26:01.350Z,0.10
2022-12-23T13:29:16.045Z,0.10
2022-12-23T13:31:55.293Z,0.28
2022-12-23T13:34:46.686Z,0.10
2022-12-23T13:37:30.572Z,0.20
2022-12-23T13:40:23.648Z,0.00
2022-12-23T13:42:55.804Z,0.20
2022-12-23T13:45:31.936Z,0.10
2022-12-23T13:48:19.968Z,0.10
2022-12-23T13:50:55.619Z,0.00
2022-12-23T13:53:48.526Z,0.15
2022-12-23T13:56:30.122Z,0.20
2022-12-23T13:58:58.705Z,0.15
2022-12-23T14:01:43.868Z,0.52
2022-12-23T14:04:33.569Z,0.00
2022-12-23T14:07:23.331Z,0.00
2022-12-23T14:09:57.248Z,0.00
2022-12-23T14:12:31.451Z,0.00
2022-12-23T14:15:39.513Z,0.10
2022-12-23T14:18:35.085Z,1.63
2022-12-23T14:21:33.390Z,1.75
2022-12-23T14:24:28.987Z,0.85
2022-12-23T14:27:05.028Z,0.60
2022-12-23T14:30:10.785Z,0.38
2022-12-23T14:33:00.558Z,0.55
2022-12-23T14:35:30.365Z,0.10
2022-12-23T14:38:23.172Z,0.00
2022-12-23T14:40:51.902Z,0.82
2022-12-23T14:43:22.605Z,0.32
2022-12-23T14:45:50.869Z,0.10
2022-12-23T14:48:36.163Z,1.45
2022-12-23T14:51:06.967Z,1.02
2022-12-23T14:53:35.373Z,0.20
2022-12-23T14:56:08.509Z,0.10
2022-12-23T14:58:54.220Z,0.65
2022-12-23T15:01:51.986Z,4.15
2022-12-23T15:04:22.409Z,6.22
2022-12-23T15:07:02.082Z,4.70
2022-12-23T15:09:40.223Z,3.78
2022-12-23T15:12:16.218Z,7.25
2022-12-23T15:15:11.990Z,3.63
2022-12-23T15:17:40.047Z,3.15
2022-12-23T15:20:10.099Z,3.53
2022-12-23T15:22:38.108Z,9.60
2022-12-23T15:25:18.576Z,16.02
2022-12-23T15:27:45.768Z,36.78
2022-12-23T15:30:14.489Z,25.13
2022-12-23T15:32:48.508Z,23.70
2022-12-23T15:35:25.394Z,8.93
2022-12-23T15:37:52.809Z,8.82
2022-12-23T15:40:37.149Z,9.17
2022-12-23T15:43:24.121Z,10.00
2022-12-23T15:45:52.348Z,7.60
2022-12-23T15:48:33.135Z,0.52
2022-12-23T15:51:06.518Z,0.40
2022-12-23T15:53:39.165Z,0.40
2022-12-23T15:56:12.108Z,0.85
2022-12-23T15:58:42.585Z,0.22
2022-12-23T16:01:15.688Z,0.00
2022-12-23T16:03:53.361Z,0.08
2022-12-23T16:06:25.594Z,0.55
2022-12-23T16:09:06.888Z,1.58
2022-12-23T16:11:53.501Z,0.10
2022-12-23T16:14:31.515Z,2.35
2022-12-23T16:17:00.508Z,0.07
2022-12-23T16:19:39.083Z,4.55
2022-12-23T16:22:20.383Z,0.93
2022-12-23T16:24:51.820Z,0.30
2022-12-23T16:27:32.270Z,0.70
2022-12-23T16:30:02.677Z,1.20
2022-12-23T16:32:29.801Z,1.25
2022-12-23T16:34:56.877Z,0.40
2022-12-23T16:37:23.935Z,1.17
2022-12-23T16:39:50.986Z,0.40
2022-12-23T16:42:19.076Z,1.40
2022-12-23T16:44:46.127Z,0.00
2022-12-23T16:47:17.691Z,0.40
2022-12-23T16:49:45.210Z,1.02
2022-12-23T16:52:14.513Z,3.60
2022-12-23T16:54:42.775Z,1.05
2022-12-23T16:59:41.278Z,7.68
2022-12-23T17:02:21.423Z,0.13
2022-12-23T17:04:48.606Z,0.10
2022-12-23T17:07:15.629Z,0.17
2022-12-23T17:09:42.625Z,1.33
2022-12-23T17:12:10.226Z,0.25
2022-12-23T17:14:37.267Z,0.00
2022-12-23T17:17:13.582Z,0.10
2022-12-23T17:19:40.695Z,0.90
2022-12-23T17:22:13.065Z,0.00
2022-12-23T17:24:40.245Z,0.00
2022-12-23T17:27:15.946Z,1.85
2022-12-23T17:29:43.370Z,13.50
2022-12-23T17:32:15.299Z,0.43
2022-12-23T17:34:42.531Z,0.65
2022-12-23T17:37:20.254Z,3.50
2022-12-23T17:39:48.405Z,0.32
2022-12-23T17:42:24.898Z,12.27
2022-12-23T17:44:52.840Z,0.27
2022-12-23T17:47:22.653Z,0.00
2022-12-23T17:49:49.944Z,2.17
2022-12-23T17:52:20.105Z,6.65
2022-12-23T17:54:49.147Z,2.05
2022-12-23T17:57:20.594Z,0.80
2022-12-23T17:59:49.286Z,0.80
2022-12-23T18:02:38.370Z,0.15
2022-12-23T18:05:27.875Z,1.65
2022-12-23T18:08:01.129Z,2.97
2022-12-23T18:10:32.812Z,0.65
2022-12-23T18:13:02.162Z,0.32
2022-12-23T18:15:39.992Z,0.70
2022-12-23T18:18:24.113Z,0.00
2022-12-23T18:20:57.459Z,0.40
2022-12-23T18:23:29.956Z,0.00
2022-12-23T18:25:57.838Z,0.22
2022-12-23T18:28:25.464Z,0.55
2022-12-23T18:30:55.219Z,0.45
2022-12-23T18:33:24.335Z,0.45
2022-12-23T18:35:51.418Z,0.55
2022-12-23T18:38:18.822Z,0.80
2022-12-23T18:40:46.252Z,0.33
2022-12-23T18:43:22.074Z,0.20
2022-12-23T18:45:53.273Z,0.70
2022-12-23T18:48:21.646Z,0.00
2022-12-23T18:50:49.178Z,0.55
2022-12-23T18:53:23.749Z,0.00
2022-12-23T18:55:52.091Z,0.55
2022-12-23T18:58:19.674Z,0.65
2022-12-23T19:00:47.923Z,0.00
2022-12-23T19:05:52.505Z,0.10
2022-12-23T19:08:26.247Z,0.93
2022-12-23T19:10:54.329Z,0.00
2022-12-23T19:13:21.403Z,0.10
2022-12-23T19:15:48.524Z,0.00
2022-12-23T19:18:18.168Z,0.00
2022-12-23T19:20:46.484Z,0.93
2022-12-23T19:23:14.066Z,0.00
2022-12-23T19:25:46.193Z,0.15
2022-12-23T19:28:19.517Z,0.00
2022-12-23T19:30:46.644Z,0.10
2022-12-23T19:33:13.687Z,0.68
2022-12-23T19:35:44.541Z,3.72
2022-12-23T19:38:12.696Z,0.28
2022-12-23T19:43:07.775Z,0.10
2022-12-23T19:45:34.943Z,2.43
2022-12-23T19:48:02.021Z,0.30
2022-12-23T19:50:29.116Z,0.98
2022-12-23T19:52:56.683Z,0.43
2022-12-23T19:55:24.020Z,1.35
2022-12-23T19:57:51.978Z,3.17
2022-12-23T20:00:19.098Z,0.08
2022-12-23T20:02:46.235Z,0.38
2022-12-23T20:05:13.389Z,0.75
2022-12-23T20:07:40.527Z,0.40
2022-12-23T20:10:08.206Z,0.10
2022-12-23T20:12:35.247Z,0.60
2022-12-23T20:15:02.403Z,0.10
2022-12-23T20:17:29.406Z,0.32
2022-12-23T20:19:56.412Z,0.75
2022-12-23T20:22:23.530Z,0.30
2022-12-23T20:24:51.186Z,0.00
2022-12-23T20:27:22.677Z,0.10
2022-12-23T20:29:53.328Z,0.32
2022-12-23T20:32:21.246Z,0.15
2022-12-23T20:34:50.193Z,0.20
2022-12-23T20:37:17.850Z,0.05
2022-12-23T20:39:44.839Z,0.30
2022-12-23T20:42:11.892Z,0.10
2022-12-23T20:44:39.002Z,0.40
2022-12-23T20:47:06.630Z,0.25
2022-12-23T20:49:33.746Z,0.00
2022-12-23T20:52:01.304Z,1.13
2022-12-23T20:54:33.084Z,2.50
2022-12-23T20:57:01.953Z,0.70
2022-12-23T20:59:29.310Z,0.00
2022-12-23T21:01:59.371Z,0.07
2022-12-23T21:04:26.676Z,0.20
2022-12-23T21:06:53.929Z,0.75
2022-12-23T21:09:20.957Z,0.40
2022-12-23T21:11:48.717Z,0.35
2022-12-23T21:14:16.309Z,0.00
2022-12-23T21:16:43.865Z,2.00
2022-12-23T21:19:17.355Z,0.00
2022-12-23T21:21:45.429Z,1.55
2022-12-23T21:24:13.174Z,0.15
2022-12-23T21:26:40.610Z,0.00
2022-12-23T21:29:09.830Z,0.00
2022-12-23T21:31:39.428Z,0.63
2022-12-23T21:34:07.625Z,1.27
2022-12-23T21:36:37.238Z,0.00
2022-12-23T21:39:05.835Z,1.20
2022-12-23T21:41:38.011Z,3.33
2022-12-23T21:44:05.812Z,0.00
2022-12-23T21:46:33.168Z,0.43
2022-12-23T21:49:00.742Z,0.00
2022-12-23T21:51:36.921Z,0.00
2022-12-23T21:54:06.737Z,0.20
2022-12-23T21:56:33.788Z,0.00
2022-12-23T21:59:03.966Z,0.57
2022-12-23T22:01:31.666Z,1.90
2022-12-23T22:03:59.087Z,0.38
2022-12-23T22:06:28.897Z,0.83
2022-12-23T22:08:57.269Z,0.52
2022-12-23T22:13:53.185Z,1.08
2022-12-23T22:16:22.453Z,1.25
2022-12-23T22:18:50.786Z,0.00
2022-12-23T22:23:47.066Z,0.00
2022-12-23T22:26:22.129Z,0.00
2022-12-23T22:28:51.566Z,0.20
2022-12-23T22:31:24.330Z,5.73
2022-12-23T22:33:51.444Z,0.00
2022-12-23T22:36:18.583Z,0.10
2022-12-23T22:38:55.129Z,0.70
2022-12-23T22:41:23.412Z,0.93
2022-12-23T22:46:18.676Z,0.90
2022-12-23T22:48:46.431Z,0.17
2022-12-23T22:51:25.025Z,0.10
2022-12-23T22:53:52.193Z,0.22
2022-12-23T22:56:21.057Z,0.00
2022-12-23T22:58:49.332Z,0.10
2022-12-23T23:03:51.348Z,12.60
2022-12-23T23:06:19.015Z,0.52
2022-12-23T23:08:46.108Z,1.67
2022-12-23T23:11:13.235Z,0.43
2022-12-23T23:13:40.336Z,0.10
2022-12-23T23:16:07.714Z,0.00
2022-12-23T23:18:34.918Z,1.97
2022-12-23T23:21:01.978Z,0.55
2022-12-23T23:23:29.066Z,2.10
2022-12-23T23:25:56.072Z,0.00
2022-12-23T23:28:23.093Z,0.00
2022-12-23T23:31:03.615Z,0.32
2022-12-23T23:33:37.267Z,0.73
2022-12-23T23:36:04.832Z,0.00
2022-12-23T23:38:31.890Z,0.10
2022-12-23T23:40:59.133Z,3.13
2022-12-23T23:43:26.204Z,0.65
2022-12-23T23:45:53.211Z,5.28
2022-12-23T23:48:21.227Z,5.38
2022-12-23T23:50:48.693Z,0.68
2022-12-23T23:53:16.551Z,0.23
2022-12-23T23:55:43.691Z,0.35
2022-12-23T23:58:12.085Z,0.00
